createdAt,value
2023-01-01T00:02:00.852Z,7.10
2023-01-01T00:04:28.989Z,7.10
2023-01-01T00:06:57.233Z,7.20
2023-01-01T00:09:42.728Z,7.20
2023-01-01T00:12:12.241Z,7.20
2023-01-01T00:14:42.938Z,7.20
2023-01-01T00:17:11.051Z,7.20
2023-01-01T00:19:39.426Z,7.20
2023-01-01T00:22:35.250Z,7.20
2023-01-01T00:24:55.473Z,7.10
2023-01-01T00:27:24.856Z,7.20
2023-01-01T00:29:52.820Z,7.20
2023-01-01T00:32:22.994Z,7.20
2023-01-01T00:34:51.642Z,7.20
2023-01-01T00:37:19.629Z,7.20
2023-01-01T00:39:47.729Z,7.20
2023-01-01T00:42:15.690Z,7.20
2023-01-01T00:44:45.090Z,7.20
2023-01-01T00:47:13.242Z,7.20
2023-01-01T00:49:41.213Z,7.20
2023-01-01T00:52:09.202Z,7.20
2023-01-01T00:54:37.204Z,7.20
2023-01-01T00:57:05.326Z,7.30
2023-01-01T00:59:33.336Z,7.20
2023-01-01T01:02:02.936Z,7.20
2023-01-01T01:04:31.045Z,7.30
2023-01-01T01:06:59.135Z,7.20
2023-01-01T01:09:27.083Z,7.20
2023-01-01T01:12:17.976Z,7.20
2023-01-01T01:14:43.191Z,7.30
2023-01-01T01:17:12.497Z,7.20
2023-01-01T01:19:40.505Z,7.20
2023-01-01T01:22:08.485Z,7.20
2023-01-01T01:24:36.419Z,7.20
2023-01-01T01:27:04.596Z,7.20
2023-01-01T01:29:32.585Z,7.20
2023-01-01T01:32:00.549Z,7.10
2023-01-01T01:34:29.890Z,7.10
2023-01-01T01:36:57.869Z,7.20
2023-01-01T01:39:25.956Z,7.20
2023-01-01T01:41:53.940Z,7.30
2023-01-01T01:44:57.475Z,7.30
2023-01-01T01:47:30.771Z,7.30
2023-01-01T01:50:05.581Z,7.30
2023-01-01T01:52:37.409Z,7.30
2023-01-01T01:55:09.062Z,7.30
2023-01-01T01:57:39.602Z,7.20
2023-01-01T02:00:11.497Z,7.20
2023-01-01T02:02:47.619Z,7.20
2023-01-01T02:05:18.108Z,7.30
2023-01-01T02:07:46.794Z,7.20
2023-01-01T02:10:14.996Z,7.30
2023-01-01T02:12:43.075Z,7.30
2023-01-01T02:15:11.593Z,7.30
2023-01-01T02:17:45.907Z,7.30
2023-01-01T02:20:48.133Z,7.30
2023-01-01T02:23:46.224Z,7.30
2023-01-01T02:26:42.639Z,7.30
2023-01-01T02:29:29.817Z,7.20
2023-01-01T02:32:03.117Z,7.30
2023-01-01T02:34:36.123Z,7.30
2023-01-01T02:37:09.854Z,7.30
2023-01-01T02:39:43.168Z,7.30
2023-01-01T02:42:11.423Z,7.30
2023-01-01T02:44:44.748Z,7.30
2023-01-01T02:47:15.904Z,7.30
2023-01-01T02:49:56.534Z,7.20
2023-01-01T02:52:41.604Z,7.30
2023-01-01T02:55:21.270Z,7.30
2023-01-01T02:57:55.165Z,7.30
2023-01-01T03:00:28.418Z,7.30
2023-01-01T03:03:17.136Z,7.20
2023-01-01T03:06:11.778Z,7.20
2023-01-01T03:08:50.941Z,7.20
2023-01-01T03:11:22.196Z,7.20
2023-01-01T03:13:57.359Z,7.20
2023-01-01T03:16:33.033Z,7.20
2023-01-01T03:19:14.229Z,7.30
2023-01-01T03:21:45.369Z,7.30
2023-01-01T03:24:21.016Z,7.20
2023-01-01T03:26:53.077Z,7.10
2023-01-01T03:29:22.881Z,7.00
2023-01-01T03:31:56.517Z,7.10
2023-01-01T03:34:31.044Z,7.20
2023-01-01T03:37:04.215Z,7.20
2023-01-01T03:39:35.644Z,7.30
2023-01-01T03:42:11.253Z,7.20
2023-01-01T03:44:46.672Z,7.10
2023-01-01T03:47:16.588Z,7.20
2023-01-01T03:49:45.207Z,7.20
2023-01-01T03:52:24.355Z,7.20
2023-01-01T03:54:59.002Z,7.30
2023-01-01T03:57:32.390Z,7.30
2023-01-01T04:00:08.078Z,7.30
2023-01-01T04:02:41.253Z,7.20
2023-01-01T04:05:11.310Z,7.20
2023-01-01T04:10:18.150Z,7.20
2023-01-01T04:12:48.008Z,7.30
2023-01-01T04:15:16.662Z,7.30
2023-01-01T04:17:46.218Z,7.40
2023-01-01T04:20:14.816Z,7.30
2023-01-01T04:22:42.951Z,7.10
2023-01-01T04:25:13.033Z,7.00
2023-01-01T04:27:41.816Z,6.80
2023-01-01T04:30:12.071Z,6.70
2023-01-01T04:32:42.516Z,6.70
2023-01-01T04:35:13.920Z,6.70
2023-01-01T04:37:43.368Z,6.80
2023-01-01T04:40:13.102Z,6.80
2023-01-01T04:42:41.138Z,6.90
2023-01-01T04:45:12.389Z,6.90
2023-01-01T04:47:41.459Z,6.80
2023-01-01T04:50:11.548Z,6.80
2023-01-01T04:52:39.506Z,6.70
2023-01-01T04:55:08.249Z,6.70
2023-01-01T04:57:36.255Z,6.70
2023-01-01T05:00:05.116Z,6.70
2023-01-01T05:02:33.120Z,6.80
2023-01-01T05:05:01.187Z,6.80
2023-01-01T05:07:30.471Z,6.70
2023-01-01T05:09:58.564Z,6.80
2023-01-01T05:12:26.678Z,7.00
2023-01-01T05:14:54.802Z,7.10
2023-01-01T05:17:22.842Z,7.10
2023-01-01T05:19:50.804Z,7.20
2023-01-01T05:22:18.761Z,7.10
2023-01-01T05:24:48.134Z,7.10
2023-01-01T05:27:16.132Z,7.10
2023-01-01T05:29:44.103Z,7.10
2023-01-01T05:37:05.957Z,7.20
2023-01-01T05:39:33.985Z,7.20
2023-01-01T05:42:03.291Z,7.20
2023-01-01T05:44:31.270Z,7.30
2023-01-01T05:46:59.224Z,7.30
2023-01-01T05:49:27.322Z,7.40
2023-01-01T05:51:55.279Z,7.40
2023-01-01T05:54:23.263Z,7.40
2023-01-01T05:56:51.233Z,7.40
2023-01-01T05:59:20.715Z,7.40
2023-01-01T06:01:48.697Z,7.40
2023-01-01T06:04:16.804Z,7.40
2023-01-01T06:06:44.889Z,7.40
2023-01-01T06:09:12.857Z,7.40
2023-01-01T06:11:40.804Z,7.40
2023-01-01T06:14:08.958Z,7.40
2023-01-01T06:16:38.329Z,7.40
2023-01-01T06:19:06.416Z,7.50
2023-01-01T06:21:34.371Z,7.40
2023-01-01T06:24:02.401Z,7.20
2023-01-01T06:26:31.941Z,7.20
2023-01-01T06:29:00.674Z,7.30
2023-01-01T06:31:32.989Z,7.30
2023-01-01T06:34:06.275Z,7.40
2023-01-01T06:36:34.467Z,7.40
2023-01-01T06:39:03.602Z,7.40
2023-01-01T06:41:31.829Z,7.40
2023-01-01T06:44:02.007Z,7.40
2023-01-01T06:46:31.832Z,7.30
2023-01-01T06:49:01.634Z,7.20
2023-01-01T06:51:32.885Z,7.10
2023-01-01T06:54:02.659Z,7.10
2023-01-01T06:56:31.520Z,7.00
2023-01-01T06:58:59.880Z,7.10
2023-01-01T07:01:29.785Z,7.10
2023-01-01T07:03:59.694Z,7.10
2023-01-01T07:06:30.741Z,7.00
2023-01-01T07:08:58.912Z,7.00
2023-01-01T07:11:28.174Z,7.00
2023-01-01T07:13:56.445Z,7.00
2023-01-01T07:16:25.532Z,7.10
2023-01-01T07:18:53.918Z,7.10
2023-01-01T07:21:31.009Z,7.10
2023-01-01T07:24:00.593Z,7.20
2023-01-01T07:26:30.069Z,7.10
2023-01-01T07:29:04.643Z,7.20
2023-01-01T07:31:34.709Z,7.20
2023-01-01T07:34:02.920Z,7.20
2023-01-01T07:36:32.495Z,7.20
2023-01-01T07:39:00.623Z,7.10
2023-01-01T07:41:28.730Z,7.10
2023-01-01T07:43:56.824Z,7.00
2023-01-01T07:46:24.878Z,7.10
2023-01-01T07:48:52.863Z,7.10
2023-01-01T07:51:20.973Z,7.10
2023-01-01T07:53:50.287Z,7.00
2023-01-01T07:56:18.478Z,7.00
2023-01-01T07:58:46.536Z,7.00
2023-01-01T08:01:15.698Z,6.90
2023-01-01T08:03:43.798Z,7.00
2023-01-01T08:06:13.663Z,7.10
2023-01-01T08:08:41.947Z,7.20
2023-01-01T08:11:11.231Z,7.30
2023-01-01T08:13:39.256Z,7.30
2023-01-01T08:16:08.074Z,7.40
2023-01-01T08:18:36.164Z,7.40
2023-01-01T08:21:04.631Z,7.40
2023-01-01T08:23:32.625Z,7.40
2023-01-01T08:26:02.236Z,7.40
2023-01-01T08:28:32.376Z,7.50
2023-01-01T08:31:00.444Z,7.40
2023-01-01T08:33:28.516Z,7.50
2023-01-01T08:35:56.656Z,7.50
2023-01-01T08:38:24.719Z,7.40
2023-01-01T08:40:52.765Z,7.20
2023-01-01T08:43:20.791Z,7.00
2023-01-01T08:45:50.222Z,7.00
2023-01-01T08:48:18.249Z,7.00
2023-01-01T08:50:46.217Z,6.90
2023-01-01T08:53:14.355Z,7.00
2023-01-01T08:55:42.294Z,7.10
2023-01-01T08:58:10.389Z,7.10
2023-01-01T09:00:38.379Z,7.10
2023-01-01T09:03:07.768Z,7.10
2023-01-01T09:05:35.925Z,7.10
2023-01-01T09:08:03.940Z,7.20
2023-01-01T09:10:32.184Z,7.10
2023-01-01T09:13:00.163Z,7.10
2023-01-01T09:15:30.284Z,7.10
2023-01-01T09:17:58.399Z,7.10
2023-01-01T09:20:27.790Z,7.20
2023-01-01T09:22:58.582Z,7.20
2023-01-01T09:25:29.117Z,7.30
2023-01-01T09:27:59.344Z,7.40
2023-01-01T09:30:27.674Z,7.40
2023-01-01T09:32:55.807Z,7.40
2023-01-01T09:35:24.169Z,7.40
2023-01-01T09:37:53.482Z,7.40
2023-01-01T09:40:29.339Z,7.30
2023-01-01T09:43:07.460Z,7.40
2023-01-01T09:45:41.337Z,7.40
2023-01-01T09:48:16.647Z,7.40
2023-01-01T09:50:46.569Z,7.50
2023-01-01T09:53:21.908Z,7.60
2023-01-01T09:55:54.112Z,7.70
2023-01-01T09:58:25.209Z,7.80
2023-01-01T10:00:56.362Z,7.80
2023-01-01T10:03:34.407Z,7.90
2023-01-01T10:06:10.545Z,7.80
2023-01-01T10:09:00.808Z,7.80
2023-01-01T10:11:37.943Z,7.80
2023-01-01T10:14:16.898Z,7.80
2023-01-01T10:16:51.967Z,7.90
2023-01-01T10:19:29.048Z,7.80
2023-01-01T10:22:03.792Z,7.80
2023-01-01T10:24:46.597Z,7.80
2023-01-01T10:27:30.994Z,7.80
2023-01-01T10:30:04.116Z,7.90
2023-01-01T10:32:35.774Z,8.00
2023-01-01T10:35:05.084Z,8.00
2023-01-01T10:37:36.840Z,8.10
2023-01-01T10:40:15.033Z,8.10
2023-01-01T10:42:43.088Z,8.10
2023-01-01T10:45:15.931Z,8.10
2023-01-01T10:48:12.288Z,8.20
2023-01-01T10:50:46.327Z,8.20
2023-01-01T10:53:31.407Z,8.20
2023-01-01T10:56:04.748Z,8.30
2023-01-01T10:58:39.454Z,8.30
2023-01-01T11:01:10.306Z,8.30
2023-01-01T11:03:38.906Z,8.30
2023-01-01T11:06:22.469Z,8.30
2023-01-01T11:08:54.334Z,8.30
2023-01-01T11:11:28.948Z,8.30
2023-01-01T11:14:00.801Z,8.40
2023-01-01T11:16:30.208Z,8.40
2023-01-01T11:19:06.937Z,8.40
2023-01-01T11:21:36.025Z,8.50
2023-01-01T11:24:19.240Z,8.50
2023-01-01T11:26:54.632Z,8.60
2023-01-01T11:29:28.889Z,8.60
2023-01-01T11:31:58.217Z,8.60
2023-01-01T11:34:33.314Z,8.70
2023-01-01T11:37:23.145Z,8.80
2023-01-01T11:39:54.361Z,8.80
2023-01-01T11:42:25.992Z,8.80
2023-01-01T11:44:56.353Z,8.80
2023-01-01T11:47:31.728Z,8.80
2023-01-01T11:50:07.156Z,8.80
2023-01-01T11:52:39.992Z,8.80
2023-01-01T11:55:30.601Z,8.80
2023-01-01T11:58:19.341Z,8.90
2023-01-01T12:00:53.314Z,8.90
2023-01-01T12:03:33.531Z,9.00
2023-01-01T12:06:07.934Z,9.00
2023-01-01T12:08:44.658Z,9.00
2023-01-01T12:11:24.428Z,9.10
2023-01-01T12:14:02.425Z,9.10
2023-01-01T12:16:42.826Z,9.10
2023-01-01T12:19:16.396Z,9.20
2023-01-01T12:21:52.498Z,9.20
2023-01-01T12:24:21.364Z,9.30
2023-01-01T12:27:10.748Z,9.30
2023-01-01T12:29:57.326Z,9.30
2023-01-01T12:32:34.404Z,9.40
2023-01-01T12:35:15.482Z,9.40
2023-01-01T12:37:51.550Z,9.50
2023-01-01T12:40:43.947Z,9.50
2023-01-01T12:43:16.260Z,9.50
2023-01-01T12:46:08.137Z,9.60
2023-01-01T12:48:49.851Z,9.70
2023-01-01T12:51:32.162Z,9.70
2023-01-01T12:54:16.532Z,9.70
2023-01-01T12:56:50.762Z,9.70
2023-01-01T12:59:23.649Z,9.70
2023-01-01T13:01:57.430Z,9.70
2023-01-01T13:04:25.964Z,9.80
2023-01-01T13:07:03.755Z,9.80
2023-01-01T13:09:36.339Z,9.80
2023-01-01T13:12:08.637Z,9.80
2023-01-01T13:14:40.251Z,9.80
2023-01-01T13:17:20.248Z,9.80
2023-01-01T13:19:58.790Z,9.80
2023-01-01T13:22:50.927Z,9.80
2023-01-01T13:25:28.922Z,9.80
2023-01-01T13:28:24.106Z,9.80
2023-01-01T13:30:54.326Z,9.90
2023-01-01T13:33:29.556Z,9.90
2023-01-01T13:36:33.102Z,9.80
2023-01-01T13:39:02.155Z,9.90
2023-01-01T13:41:32.190Z,9.90
2023-01-01T13:44:18.744Z,9.90
2023-01-01T13:46:59.939Z,9.90
2023-01-01T13:49:42.961Z,9.90
2023-01-01T13:52:35.084Z,9.90
2023-01-01T13:55:41.649Z,9.90
2023-01-01T13:58:33.391Z,9.90
2023-01-01T14:01:19.708Z,10.00
2023-01-01T14:03:50.095Z,10.00
2023-01-01T14:06:29.182Z,10.00
2023-01-01T14:09:06.554Z,9.90
2023-01-01T14:11:37.666Z,9.90
2023-01-01T14:14:24.134Z,9.90
2023-01-01T14:16:53.447Z,9.90
2023-01-01T14:19:21.931Z,9.90
2023-01-01T14:21:52.728Z,9.90
2023-01-01T14:24:23.497Z,9.90
2023-01-01T14:26:52.569Z,9.90
2023-01-01T14:29:26.804Z,9.80
2023-01-01T14:31:55.278Z,9.80
2023-01-01T14:34:27.455Z,9.80
2023-01-01T14:36:58.418Z,9.80
2023-01-01T14:39:28.410Z,9.80
2023-01-01T14:42:00.421Z,9.80
2023-01-01T14:44:34.510Z,9.80
2023-01-01T14:47:02.985Z,9.80
2023-01-01T14:49:34.582Z,9.80
2023-01-01T14:52:07.484Z,9.80
2023-01-01T14:54:39.257Z,9.80
2023-01-01T14:57:11.687Z,9.80
2023-01-01T14:59:47.749Z,9.70
2023-01-01T15:02:17.666Z,9.80
2023-01-01T15:04:47.523Z,9.70
2023-01-01T15:07:24.418Z,9.70
2023-01-01T15:09:53.899Z,9.80
2023-01-01T15:12:22.914Z,9.70
2023-01-01T15:14:52.604Z,9.70
2023-01-01T15:17:22.964Z,9.70
2023-01-01T15:20:05.033Z,9.60
2023-01-01T15:22:35.841Z,9.50
2023-01-01T15:25:04.758Z,9.50
2023-01-01T15:27:35.070Z,9.50
2023-01-01T15:30:11.605Z,9.60
2023-01-01T15:32:42.077Z,9.60
2023-01-01T15:35:27.673Z,9.60
2023-01-01T15:38:02.493Z,9.60
2023-01-01T15:40:36.796Z,9.50
2023-01-01T15:43:20.076Z,9.50
2023-01-01T15:45:57.473Z,9.40
2023-01-01T15:48:33.688Z,9.40
2023-01-01T15:51:08.771Z,9.40
2023-01-01T15:53:57.897Z,9.30
2023-01-01T15:56:28.385Z,9.30
2023-01-01T15:59:06.824Z,9.30
2023-01-01T16:01:40.142Z,9.30
2023-01-01T16:04:11.009Z,9.30
2023-01-01T16:06:45.040Z,9.30
2023-01-01T16:09:15.984Z,9.40
2023-01-01T16:11:44.683Z,9.30
2023-01-01T16:14:12.698Z,9.40
2023-01-01T16:16:44.458Z,9.40
2023-01-01T16:19:17.061Z,9.40
2023-01-01T16:21:45.271Z,9.40
2023-01-01T16:24:16.443Z,9.40
2023-01-01T16:26:44.531Z,9.40
2023-01-01T16:29:12.865Z,9.30
2023-01-01T16:31:41.521Z,9.30
2023-01-01T16:34:12.799Z,9.30
2023-01-01T16:36:40.829Z,9.30
2023-01-01T16:39:08.922Z,9.30
2023-01-01T16:41:41.882Z,9.20
2023-01-01T16:44:12.968Z,9.30
2023-01-01T16:46:41.132Z,9.30
2023-01-01T16:49:09.588Z,9.40
2023-01-01T16:51:42.126Z,9.40
2023-01-01T16:54:11.515Z,9.40
2023-01-01T16:56:40.822Z,9.40
2023-01-01T16:59:08.963Z,9.40
2023-01-01T17:01:37.031Z,9.40
2023-01-01T17:04:05.338Z,9.40
2023-01-01T17:06:33.469Z,9.40
2023-01-01T17:09:01.477Z,9.40
2023-01-01T17:11:29.432Z,9.30
2023-01-01T17:13:59.706Z,9.30
2023-01-01T17:16:34.465Z,9.30
2023-01-01T17:19:15.629Z,9.30
2023-01-01T17:21:45.588Z,9.40
2023-01-01T17:24:13.733Z,9.30
2023-01-01T17:26:41.695Z,9.30
2023-01-01T17:29:13.009Z,9.30
2023-01-01T17:31:41.033Z,9.40
2023-01-01T17:34:14.322Z,9.40
2023-01-01T17:36:43.594Z,9.40
2023-01-01T17:39:12.170Z,9.40
2023-01-01T17:41:40.264Z,9.40
2023-01-01T17:44:08.926Z,9.40
2023-01-01T17:46:38.715Z,9.30
2023-01-01T17:49:09.088Z,9.30
2023-01-01T17:51:37.198Z,9.40
2023-01-01T17:54:07.277Z,9.30
2023-01-01T17:56:39.436Z,9.30
2023-01-01T17:59:07.695Z,9.30
2023-01-01T18:01:35.942Z,9.30
2023-01-01T18:04:07.376Z,9.30
2023-01-01T18:06:41.536Z,9.20
2023-01-01T18:09:16.485Z,9.30
2023-01-01T18:11:45.393Z,9.30
2023-01-01T18:14:16.363Z,9.30
2023-01-01T18:16:47.748Z,9.30
2023-01-01T18:19:17.189Z,9.30
2023-01-01T18:21:45.222Z,9.30
2023-01-01T18:24:14.890Z,9.30
2023-01-01T18:26:43.485Z,9.30
2023-01-01T18:29:11.543Z,9.30
2023-01-01T18:31:39.639Z,9.20
2023-01-01T18:34:07.680Z,9.20
2023-01-01T18:36:37.139Z,9.20
2023-01-01T18:39:14.860Z,9.20
2023-01-01T18:41:57.075Z,9.10
2023-01-01T18:44:26.777Z,9.10
2023-01-01T18:46:59.200Z,9.10
2023-01-01T18:49:27.369Z,9.10
2023-01-01T18:52:03.770Z,9.10
2023-01-01T18:54:31.820Z,9.20
2023-01-01T18:57:11.349Z,9.20
2023-01-01T18:59:39.450Z,9.20
2023-01-01T19:02:27.892Z,9.20
2023-01-01T19:05:06.801Z,9.30
2023-01-01T19:07:36.131Z,9.20
2023-01-01T19:10:11.814Z,9.20
2023-01-01T19:12:39.869Z,9.20
2023-01-01T19:15:16.724Z,9.20
2023-01-01T19:17:44.852Z,9.20
2023-01-01T19:20:18.484Z,9.20
2023-01-01T19:22:48.244Z,9.20
2023-01-01T19:25:38.545Z,9.20
2023-01-01T19:28:31.288Z,9.20
2023-01-01T19:30:59.675Z,9.20
2023-01-01T19:33:30.132Z,9.20
2023-01-01T19:36:00.529Z,9.20
2023-01-01T19:38:29.903Z,9.20
2023-01-01T19:40:57.876Z,9.20
2023-01-01T19:43:25.877Z,9.20
2023-01-01T19:45:53.958Z,9.20
2023-01-01T19:48:21.921Z,9.20
2023-01-01T19:50:50.017Z,9.20
2023-01-01T19:53:18.176Z,9.20
2023-01-01T19:55:47.585Z,9.20
2023-01-01T19:58:16.179Z,9.20
2023-01-01T20:00:44.192Z,9.20
2023-01-01T20:03:52.187Z,9.20
2023-01-01T20:06:00.427Z,9.20
2023-01-01T20:08:31.047Z,9.20
2023-01-01T20:11:00.628Z,9.20
2023-01-01T20:13:28.594Z,9.20
2023-01-01T20:15:56.859Z,9.20
2023-01-01T20:18:24.976Z,9.20
2023-01-01T20:21:10.540Z,9.10
2023-01-01T20:23:41.770Z,9.20
2023-01-01T20:26:11.232Z,9.10
2023-01-01T20:28:56.784Z,9.10
2023-01-01T20:31:25.981Z,9.00
2023-01-01T20:33:53.996Z,9.10
2023-01-01T20:36:39.543Z,9.10
2023-01-01T20:39:07.658Z,9.10
2023-01-01T20:41:36.990Z,9.20
2023-01-01T20:44:05.039Z,9.10
2023-01-01T20:46:33.063Z,9.10
2023-01-01T20:49:01.220Z,9.20
2023-01-01T20:51:29.217Z,9.20
2023-01-01T20:53:57.245Z,9.20
2023-01-01T20:56:25.374Z,9.20
2023-01-01T20:59:00.149Z,9.20
2023-01-01T21:01:33.199Z,9.20
2023-01-01T21:04:01.286Z,9.20
2023-01-01T21:06:29.388Z,9.10
2023-01-01T21:08:57.503Z,9.10
2023-01-01T21:11:25.477Z,9.10
2023-01-01T21:13:54.863Z,9.10
2023-01-01T21:16:28.911Z,9.10
2023-01-01T21:18:58.089Z,9.10
2023-01-01T21:21:27.677Z,9.10
2023-01-01T21:24:02.314Z,9.00
2023-01-01T21:26:33.725Z,9.00
2023-01-01T21:29:06.146Z,9.00
2023-01-01T21:31:38.890Z,9.00
2023-01-01T21:34:23.654Z,9.00
2023-01-01T21:36:51.749Z,9.00
2023-01-01T21:39:30.067Z,9.00
2023-01-01T21:42:03.563Z,9.00
2023-01-01T21:44:35.702Z,9.00
2023-01-01T21:47:04.130Z,9.00
2023-01-01T21:49:39.753Z,9.00
2023-01-01T21:52:16.391Z,9.10
2023-01-01T21:54:44.635Z,9.10
2023-01-01T21:57:18.414Z,9.10
2023-01-01T21:59:48.368Z,9.10
2023-01-01T22:02:39.321Z,9.10
2023-01-01T22:05:31.252Z,9.00
2023-01-01T22:08:00.161Z,9.00
2023-01-01T22:10:33.565Z,9.00
2023-01-01T22:13:02.351Z,9.00
2023-01-01T22:15:40.244Z,9.00
2023-01-01T22:18:19.880Z,9.00
2023-01-01T22:20:48.608Z,9.00
2023-01-01T22:23:43.423Z,9.00
2023-01-01T22:26:20.383Z,8.90
2023-01-01T22:28:52.126Z,8.90
2023-01-01T22:31:25.665Z,8.90
2023-01-01T22:33:55.386Z,8.90
2023-01-01T22:36:26.652Z,8.90
2023-01-01T22:38:56.694Z,8.90
2023-01-01T22:41:24.641Z,8.90
2023-01-01T22:43:57.913Z,9.00
2023-01-01T22:46:34.956Z,9.00
2023-01-01T22:49:14.295Z,8.90
2023-01-01T22:51:44.397Z,8.90
2023-01-01T22:54:12.499Z,8.90
2023-01-01T22:56:40.527Z,8.90
2023-01-01T22:59:10.797Z,8.90
2023-01-01T23:01:40.375Z,8.80
2023-01-01T23:04:08.937Z,8.80
2023-01-01T23:06:37.158Z,8.80
2023-01-01T23:09:06.117Z,8.90
2023-01-01T23:11:34.172Z,8.90
2023-01-01T23:14:19.530Z,8.90
2023-01-01T23:16:48.890Z,8.90
2023-01-01T23:19:16.903Z,8.80
2023-01-01T23:21:44.895Z,8.70
2023-01-01T23:24:16.423Z,8.60
2023-01-01T23:26:49.281Z,8.70
2023-01-01T23:29:18.976Z,8.70
2023-01-01T23:31:49.745Z,8.80
2023-01-01T23:34:17.840Z,8.90
2023-01-01T23:36:45.949Z,8.90
2023-01-01T23:39:14.031Z,8.90
2023-01-01T23:41:42.009Z,8.90
2023-01-01T23:44:13.940Z,8.90
2023-01-01T23:46:42.023Z,8.90
2023-01-01T23:49:11.639Z,8.90
2023-01-01T23:51:40.128Z,8.90
2023-01-01T23:54:10.674Z,8.90
2023-01-01T23:56:38.811Z,8.90
2023-01-01T23:59:07.133Z,8.90
